createdAt,value
2023-05-02T00:00:49.741Z,94.19
2023-05-02T00:06:57.452Z,96.10
2023-05-02T00:09:24.008Z,94.65
2023-05-02T00:11:50.358Z,96.13
2023-05-02T00:14:16.714Z,96.12
2023-05-02T00:16:43.016Z,95.92
2023-05-02T00:19:09.424Z,97.38
2023-05-02T00:21:35.830Z,96.15
2023-05-02T00:24:02.188Z,95.47
2023-05-02T00:26:29.029Z,96.05
2023-05-02T00:28:55.344Z,96.21
2023-05-02T00:31:21.711Z,96.08
2023-05-02T00:33:48.133Z,97.13
2023-05-02T00:36:15.788Z,96.26
2023-05-02T00:38:42.105Z,96.12
2023-05-02T00:41:08.512Z,94.84
2023-05-02T00:43:34.997Z,95.43
2023-05-02T00:46:01.391Z,94.78
2023-05-02T00:48:30.988Z,95.43
2023-05-02T00:50:58.218Z,95.60
2023-05-02T00:53:24.663Z,97.40
2023-05-02T00:55:51.093Z,98.45
2023-05-02T00:58:19.204Z,99.04
2023-05-02T01:01:08.087Z,99.91
2023-05-02T01:04:03.604Z,98.65
2023-05-02T01:06:48.459Z,99.38
2023-05-02T01:09:20.995Z,99.83
2023-05-02T01:12:03.241Z,97.70
2023-05-02T01:14:33.073Z,97.23
2023-05-02T01:17:04.807Z,98.49
2023-05-02T01:19:36.843Z,99.20
2023-05-02T01:22:07.940Z,99.32
2023-05-02T01:24:47.836Z,100.00
2023-05-02T01:27:39.409Z,100.00
2023-05-02T01:30:08.038Z,100.00
2023-05-02T01:32:39.256Z,100.00
2023-05-02T01:35:08.493Z,100.00
2023-05-02T01:37:36.719Z,100.00
2023-05-02T01:40:05.500Z,100.00
2023-05-02T01:42:34.217Z,100.00
2023-05-02T01:45:02.840Z,100.00
2023-05-02T01:47:32.296Z,100.00
2023-05-02T01:50:01.610Z,100.00
2023-05-02T01:52:29.434Z,100.00
2023-05-02T01:54:59.144Z,100.00
2023-05-02T01:57:26.045Z,100.00
2023-05-02T01:59:56.825Z,100.00
2023-05-02T02:02:27.071Z,100.00
2023-05-02T02:04:55.248Z,100.00
2023-05-02T02:07:21.834Z,100.00
2023-05-02T02:09:48.325Z,100.00
2023-05-02T02:12:23.101Z,100.00
2023-05-02T02:14:55.970Z,100.00
2023-05-02T02:17:27.928Z,100.00
2023-05-02T02:19:56.838Z,100.00
2023-05-02T02:22:26.522Z,100.00
2023-05-02T02:24:54.589Z,100.00
2023-05-02T02:27:21.079Z,100.00
2023-05-02T02:29:47.455Z,100.00
2023-05-02T02:32:13.926Z,100.00
2023-05-02T02:34:40.368Z,100.00
2023-05-02T02:37:26.371Z,100.00
2023-05-02T02:40:03.782Z,100.00
2023-05-02T02:42:51.942Z,100.00
2023-05-02T02:45:36.414Z,100.00
2023-05-02T02:48:18.399Z,100.00
2023-05-02T02:51:05.804Z,100.00
2023-05-02T02:53:58.265Z,100.00
2023-05-02T02:56:39.091Z,100.00
2023-05-02T02:59:12.683Z,100.00
2023-05-02T03:01:43.574Z,100.00
2023-05-02T03:04:12.150Z,100.00
2023-05-02T03:06:39.220Z,100.00
2023-05-02T03:09:05.812Z,100.00
2023-05-02T03:11:32.132Z,100.00
2023-05-02T03:13:58.506Z,100.00
2023-05-02T03:16:39.446Z,100.00
2023-05-02T03:19:07.378Z,100.00
2023-05-02T03:21:34.523Z,100.00
2023-05-02T03:24:02.417Z,100.00
2023-05-02T03:26:28.742Z,100.00
2023-05-02T03:28:56.181Z,100.00
2023-05-02T03:31:24.742Z,100.00
2023-05-02T03:33:53.005Z,100.00
2023-05-02T03:36:19.658Z,100.00
2023-05-02T03:38:46.084Z,100.00
2023-05-02T03:41:12.599Z,100.00
2023-05-02T03:43:38.939Z,100.00
2023-05-02T03:46:07.920Z,100.00
2023-05-02T03:48:34.698Z,100.00
2023-05-02T03:51:02.888Z,100.00
2023-05-02T03:53:31.566Z,100.00
2023-05-02T03:55:58.396Z,100.00
2023-05-02T03:58:25.552Z,100.00
2023-05-02T04:00:55.407Z,100.00
2023-05-02T04:03:22.781Z,100.00
2023-05-02T04:05:49.418Z,100.00
2023-05-02T04:08:15.745Z,100.00
2023-05-02T04:10:42.392Z,100.00
2023-05-02T04:13:08.882Z,100.00
2023-05-02T04:15:35.258Z,100.00
2023-05-02T04:18:01.814Z,100.00
2023-05-02T04:20:29.203Z,100.00
2023-05-02T04:22:55.554Z,100.00
2023-05-02T04:25:21.890Z,100.00
2023-05-02T04:27:48.274Z,100.00
2023-05-02T04:30:14.768Z,100.00
2023-05-02T04:32:41.168Z,100.00
2023-05-02T04:35:07.917Z,100.00
2023-05-02T04:37:34.240Z,100.00
2023-05-02T04:40:00.846Z,100.00
2023-05-02T04:42:27.597Z,100.00
2023-05-02T04:44:53.906Z,100.00
2023-05-02T04:47:20.456Z,100.00
2023-05-02T04:49:47.168Z,100.00
2023-05-02T04:52:13.653Z,100.00
2023-05-02T04:54:40.005Z,100.00
2023-05-02T04:57:07.847Z,100.00
2023-05-02T04:59:34.882Z,100.00
2023-05-02T05:02:01.454Z,100.00
2023-05-02T05:04:27.886Z,100.00
2023-05-02T05:06:54.755Z,100.00
2023-05-02T05:09:21.240Z,100.00
2023-05-02T05:11:47.688Z,100.00
2023-05-02T05:14:14.123Z,100.00
2023-05-02T05:16:40.444Z,100.00
2023-05-02T05:19:06.946Z,100.00
2023-05-02T05:21:33.492Z,100.00
2023-05-02T05:23:59.954Z,100.00
2023-05-02T05:26:26.753Z,100.00
2023-05-02T05:28:53.143Z,100.00
2023-05-02T05:31:19.507Z,100.00
2023-05-02T05:33:45.953Z,100.00
2023-05-02T05:36:17.119Z,100.00
2023-05-02T05:38:43.397Z,100.00
2023-05-02T05:41:11.046Z,100.00
2023-05-02T05:43:38.445Z,100.00
2023-05-02T05:46:05.418Z,100.00
2023-05-02T05:48:31.859Z,100.00
2023-05-02T05:50:58.232Z,100.00
2023-05-02T05:53:24.538Z,100.00
2023-05-02T05:55:50.987Z,100.00
2023-05-02T05:58:17.422Z,100.00
2023-05-02T06:00:43.744Z,100.00
2023-05-02T06:03:10.343Z,100.00
2023-05-02T06:05:37.049Z,100.00
2023-05-02T06:08:03.574Z,100.00
2023-05-02T06:10:31.543Z,100.00
2023-05-02T06:12:58.166Z,100.00
2023-05-02T06:15:24.575Z,100.00
2023-05-02T06:17:52.066Z,100.00
2023-05-02T06:20:18.909Z,100.00
2023-05-02T06:22:45.601Z,100.00
2023-05-02T06:25:11.992Z,100.00
2023-05-02T06:27:38.306Z,100.00
2023-05-02T06:30:06.457Z,100.00
2023-05-02T06:32:32.889Z,100.00
2023-05-02T06:34:59.377Z,100.00
2023-05-02T06:37:25.902Z,100.00
2023-05-02T06:39:52.238Z,100.00
2023-05-02T06:42:18.610Z,100.00
2023-05-02T06:44:44.919Z,100.00
2023-05-02T06:47:12.303Z,100.00
2023-05-02T06:49:38.742Z,100.00
2023-05-02T06:52:05.078Z,100.00
2023-05-02T06:54:31.397Z,100.00
2023-05-02T06:56:57.799Z,100.00
2023-05-02T06:59:24.218Z,99.28
2023-05-02T07:01:50.946Z,99.91
2023-05-02T07:07:07.610Z,97.91
2023-05-02T07:09:33.937Z,95.66
2023-05-02T07:12:03.573Z,93.69
2023-05-02T07:14:30.968Z,91.09
2023-05-02T07:16:57.507Z,92.08
2023-05-02T07:19:23.868Z,92.13
2023-05-02T07:21:50.278Z,88.05
2023-05-02T07:24:16.605Z,90.56
2023-05-02T07:26:43.026Z,89.35
2023-05-02T07:29:09.718Z,83.42
2023-05-02T07:31:36.026Z,86.24
2023-05-02T07:34:02.494Z,87.34
2023-05-02T07:36:28.809Z,87.32
2023-05-02T07:38:55.116Z,87.60
2023-05-02T07:41:21.554Z,87.46
2023-05-02T07:43:47.982Z,86.85
2023-05-02T07:46:14.441Z,86.47
2023-05-02T07:48:42.791Z,85.84
2023-05-02T07:51:10.745Z,82.55
2023-05-02T07:53:37.139Z,83.27
2023-05-02T07:56:05.169Z,84.04
2023-05-02T07:58:31.567Z,82.14
2023-05-02T08:00:57.989Z,83.30
2023-05-02T08:03:24.454Z,82.27
2023-05-02T08:05:51.229Z,80.78
2023-05-02T08:08:17.639Z,81.42
2023-05-02T08:10:44.537Z,82.73
2023-05-02T08:13:11.400Z,82.61
2023-05-02T08:18:05.089Z,82.16
2023-05-02T08:20:31.451Z,83.38
2023-05-02T08:22:59.958Z,84.90
2023-05-02T08:25:26.632Z,85.92
2023-05-02T08:27:53.374Z,85.57
2023-05-02T08:30:19.702Z,86.13
2023-05-02T08:32:47.421Z,84.92
2023-05-02T08:35:13.761Z,84.43
2023-05-02T08:37:40.207Z,84.57
2023-05-02T08:40:11.825Z,84.23
2023-05-02T08:42:42.002Z,83.63
2023-05-02T08:45:09.156Z,85.33
2023-05-02T08:47:36.715Z,84.06
2023-05-02T08:50:05.701Z,85.86
2023-05-02T08:52:33.337Z,84.81
2023-05-02T08:55:02.315Z,85.10
2023-05-02T08:57:30.005Z,83.07
2023-05-02T08:59:56.884Z,84.71
2023-05-02T09:02:51.675Z,82.16
2023-05-02T09:05:23.388Z,82.03
2023-05-02T09:07:51.679Z,86.30
2023-05-02T09:10:18.318Z,85.84
2023-05-02T09:12:44.655Z,86.17
2023-05-02T09:15:12.374Z,82.83
2023-05-02T09:17:43.346Z,81.44
2023-05-02T09:20:14.935Z,82.89
2023-05-02T09:22:53.443Z,83.67
2023-05-02T09:25:20.638Z,83.26
2023-05-02T09:27:52.325Z,84.43
2023-05-02T09:30:26.234Z,84.17
2023-05-02T09:32:55.639Z,80.88
2023-05-02T09:35:25.868Z,80.18
2023-05-02T09:37:54.283Z,77.00
2023-05-02T09:40:21.374Z,75.98
2023-05-02T09:42:47.829Z,77.87
2023-05-02T09:45:26.739Z,74.11
2023-05-02T09:47:54.170Z,74.64
2023-05-02T09:50:37.639Z,73.04
2023-05-02T09:53:09.590Z,71.46
2023-05-02T09:55:36.309Z,73.02
2023-05-02T09:58:03.367Z,70.60
2023-05-02T10:00:40.691Z,68.39
2023-05-02T10:03:08.585Z,73.86
2023-05-02T10:05:39.515Z,73.34
2023-05-02T10:08:07.421Z,72.68
2023-05-02T10:10:37.279Z,72.08
2023-05-02T10:13:05.346Z,68.87
2023-05-02T10:15:33.836Z,68.58
2023-05-02T10:18:03.690Z,71.12
2023-05-02T10:20:37.373Z,67.74
2023-05-02T10:23:05.942Z,69.05
2023-05-02T10:25:33.306Z,71.53
2023-05-02T10:28:00.196Z,73.98
2023-05-02T10:30:28.012Z,73.16
2023-05-02T10:32:54.684Z,69.52
2023-05-02T10:35:21.545Z,70.00
2023-05-02T10:37:49.766Z,72.24
2023-05-02T10:40:16.360Z,67.48
2023-05-02T10:42:47.011Z,69.18
2023-05-02T10:45:30.732Z,67.81
2023-05-02T10:48:14.341Z,67.70
2023-05-02T10:50:52.210Z,67.96
2023-05-02T10:53:28.630Z,66.79
2023-05-02T10:56:28.453Z,63.75
2023-05-02T10:59:28.586Z,63.37
2023-05-02T11:01:55.025Z,60.95
2023-05-02T11:04:21.417Z,64.16
2023-05-02T11:06:56.787Z,63.18
2023-05-02T11:09:23.050Z,57.48
2023-05-02T11:11:52.410Z,57.99
2023-05-02T11:14:30.959Z,57.04
2023-05-02T11:16:57.504Z,59.24
2023-05-02T11:19:29.214Z,55.95
2023-05-02T11:22:20.656Z,56.99
2023-05-02T11:24:48.688Z,58.27
2023-05-02T11:27:30.381Z,56.44
2023-05-02T11:29:56.830Z,56.05
2023-05-02T11:32:23.820Z,55.59
2023-05-02T11:34:52.579Z,54.47
2023-05-02T11:37:21.040Z,54.63
2023-05-02T11:39:47.410Z,55.05
2023-05-02T11:42:30.245Z,54.25
2023-05-02T11:45:01.265Z,54.60
2023-05-02T11:47:29.531Z,52.20
2023-05-02T11:49:56.747Z,54.92
2023-05-02T11:52:23.777Z,53.06
2023-05-02T11:54:53.848Z,56.00
2023-05-02T11:57:20.257Z,53.81
2023-05-02T11:59:53.769Z,56.09
2023-05-02T12:02:21.236Z,55.97
2023-05-02T12:04:47.699Z,55.05
2023-05-02T12:07:14.233Z,56.25
2023-05-02T12:09:53.763Z,55.42
2023-05-02T12:12:21.346Z,56.27
2023-05-02T12:14:48.208Z,54.82
2023-05-02T12:17:15.289Z,53.73
2023-05-02T12:19:41.890Z,55.35
2023-05-02T12:22:09.680Z,51.94
2023-05-02T12:24:36.552Z,54.30
2023-05-02T12:27:16.705Z,54.79
2023-05-02T12:29:45.090Z,57.42
2023-05-02T12:32:12.345Z,59.20
2023-05-02T12:34:39.447Z,56.89
2023-05-02T12:37:07.717Z,64.27
2023-05-02T12:39:41.029Z,64.68
2023-05-02T12:42:14.651Z,65.84
2023-05-02T12:44:45.568Z,64.38
2023-05-02T12:47:16.476Z,67.48
2023-05-02T12:49:52.498Z,64.92
2023-05-02T12:52:42.314Z,70.03
2023-05-02T12:55:17.791Z,71.05
2023-05-02T12:57:44.287Z,69.93
2023-05-02T13:00:11.680Z,70.52
2023-05-02T13:02:38.058Z,68.63
2023-05-02T13:05:17.796Z,69.01
2023-05-02T13:07:44.520Z,71.26
2023-05-02T13:10:12.191Z,71.05
2023-05-02T13:12:38.703Z,72.55
2023-05-02T13:15:06.984Z,69.80
2023-05-02T13:17:34.242Z,67.98
2023-05-02T13:20:02.435Z,68.75
2023-05-02T13:22:29.349Z,70.67
2023-05-02T13:24:57.979Z,68.94
2023-05-02T13:27:25.206Z,65.75
2023-05-02T13:29:52.104Z,65.67
2023-05-02T13:32:18.659Z,64.18
2023-05-02T13:34:45.352Z,62.90
2023-05-02T13:37:11.711Z,66.45
2023-05-02T13:39:38.006Z,66.15
2023-05-02T13:42:05.953Z,66.03
2023-05-02T13:44:32.713Z,64.20
2023-05-02T13:46:59.172Z,62.09
2023-05-02T13:49:25.573Z,58.55
2023-05-02T13:51:51.959Z,60.26
2023-05-02T13:54:18.747Z,58.61
2023-05-02T13:56:45.138Z,58.40
2023-05-02T13:59:11.503Z,59.66
2023-05-02T14:01:40.345Z,60.65
2023-05-02T14:04:08.651Z,58.90
2023-05-02T14:06:35.972Z,57.83
2023-05-02T14:09:02.886Z,57.03
2023-05-02T14:11:29.379Z,55.14
2023-05-02T14:13:58.094Z,56.69
2023-05-02T14:16:24.518Z,52.44
2023-05-02T14:18:51.087Z,53.17
2023-05-02T14:21:17.533Z,52.42
2023-05-02T14:23:43.859Z,54.38
2023-05-02T14:26:10.246Z,55.37
2023-05-02T14:28:38.309Z,55.92
2023-05-02T14:31:05.738Z,54.60
2023-05-02T14:33:32.102Z,54.74
2023-05-02T14:35:58.435Z,54.41
2023-05-02T14:38:24.736Z,54.12
2023-05-02T14:40:51.237Z,54.17
2023-05-02T14:43:17.895Z,56.69
2023-05-02T14:45:44.235Z,55.34
2023-05-02T14:48:11.676Z,55.62
2023-05-02T14:50:39.466Z,54.15
2023-05-02T14:53:06.327Z,52.65
2023-05-02T14:55:39.679Z,54.38
2023-05-02T14:58:08.771Z,52.29
2023-05-02T15:00:37.593Z,51.96
2023-05-02T15:03:07.623Z,52.49
2023-05-02T15:05:36.560Z,50.42
2023-05-02T15:08:03.085Z,52.03
2023-05-02T15:10:29.511Z,51.69
2023-05-02T15:12:56.216Z,52.31
2023-05-02T15:15:24.944Z,51.93
2023-05-02T15:17:52.820Z,53.71
2023-05-02T15:20:19.940Z,54.66
2023-05-02T15:22:46.370Z,54.85
2023-05-02T15:25:12.690Z,54.39
2023-05-02T15:27:39.041Z,55.78
2023-05-02T15:30:07.250Z,56.11
2023-05-02T15:32:33.591Z,55.40
2023-05-02T15:34:59.961Z,55.49
2023-05-02T15:37:26.446Z,56.47
2023-05-02T15:39:52.806Z,55.93
2023-05-02T15:42:19.137Z,54.25
2023-05-02T15:44:45.472Z,57.31
2023-05-02T15:47:11.883Z,55.85
2023-05-02T15:49:38.772Z,53.21
2023-05-02T15:52:05.243Z,52.40
2023-05-02T15:54:32.088Z,53.94
2023-05-02T15:56:58.518Z,52.96
2023-05-02T15:59:24.936Z,54.02
2023-05-02T16:01:51.368Z,55.14
2023-05-02T16:04:17.812Z,54.05
2023-05-02T16:06:44.525Z,55.19
2023-05-02T16:09:12.677Z,53.84
2023-05-02T16:11:39.116Z,53.69
2023-05-02T16:14:05.601Z,55.14
2023-05-02T16:16:32.264Z,55.04
2023-05-02T16:18:58.829Z,56.90
2023-05-02T16:21:25.603Z,55.65
2023-05-02T16:23:52.267Z,55.11
2023-05-02T16:26:20.198Z,54.75
2023-05-02T16:28:46.557Z,54.17
2023-05-02T16:31:14.756Z,54.67
2023-05-02T16:33:42.708Z,54.21
2023-05-02T16:36:09.706Z,55.34
2023-05-02T16:38:36.546Z,54.58
2023-05-02T16:41:05.017Z,54.34
2023-05-02T16:43:31.455Z,56.09
2023-05-02T16:46:05.884Z,55.76
2023-05-02T16:48:33.285Z,55.83
2023-05-02T16:51:03.195Z,55.79
2023-05-02T16:53:30.870Z,54.92
2023-05-02T16:55:59.247Z,55.77
2023-05-02T16:58:27.502Z,55.46
2023-05-02T17:00:53.943Z,55.90
2023-05-02T17:03:20.394Z,58.45
2023-05-02T17:05:46.844Z,56.92
2023-05-02T17:08:13.802Z,57.16
2023-05-02T17:10:40.509Z,57.65
2023-05-02T17:13:06.986Z,57.56
2023-05-02T17:15:38.349Z,57.34
2023-05-02T17:18:05.103Z,57.98
2023-05-02T17:20:32.155Z,56.53
2023-05-02T17:23:00.256Z,57.33
2023-05-02T17:25:26.749Z,56.52
2023-05-02T17:27:53.267Z,57.37
2023-05-02T17:30:19.672Z,58.28
2023-05-02T17:32:46.395Z,58.66
2023-05-02T17:35:14.026Z,60.66
2023-05-02T17:37:40.550Z,59.73
2023-05-02T17:40:07.764Z,59.84
2023-05-02T17:42:34.086Z,59.65
2023-05-02T17:45:00.539Z,59.87
2023-05-02T17:47:26.924Z,60.47
2023-05-02T17:49:53.716Z,60.41
2023-05-02T17:52:20.154Z,62.02
2023-05-02T17:54:46.561Z,62.60
2023-05-02T17:57:14.480Z,63.42
2023-05-02T17:59:41.491Z,63.15
2023-05-02T18:02:10.111Z,63.83
2023-05-02T18:04:37.193Z,64.68
2023-05-02T18:07:05.720Z,63.76
2023-05-02T18:09:32.502Z,62.98
2023-05-02T18:12:00.438Z,62.71
2023-05-02T18:14:26.795Z,62.67
2023-05-02T18:16:53.087Z,63.74
2023-05-02T18:19:19.409Z,64.10
2023-05-02T18:21:46.097Z,64.61
2023-05-02T18:24:12.697Z,65.14
2023-05-02T18:26:39.090Z,64.55
2023-05-02T18:29:05.555Z,64.62
2023-05-02T18:31:32.201Z,64.08
2023-05-02T18:33:58.610Z,63.46
2023-05-02T18:36:28.265Z,64.73
2023-05-02T18:38:55.637Z,64.03
2023-05-02T18:41:22.330Z,64.69
2023-05-02T18:43:48.990Z,64.33
2023-05-02T18:46:15.370Z,65.00
2023-05-02T18:48:41.693Z,65.10
2023-05-02T18:51:08.251Z,64.76
2023-05-02T18:53:34.839Z,66.27
2023-05-02T18:56:01.207Z,66.02
2023-05-02T18:58:27.724Z,65.63
2023-05-02T19:00:54.078Z,65.96
2023-05-02T19:03:20.566Z,65.70
2023-05-02T19:05:47.081Z,65.16
2023-05-02T19:08:13.494Z,65.68
2023-05-02T19:10:39.809Z,66.29
2023-05-02T19:13:06.206Z,67.15
2023-05-02T19:15:34.125Z,66.77
2023-05-02T19:18:00.772Z,67.63
2023-05-02T19:20:27.475Z,68.70
2023-05-02T19:23:02.954Z,68.93
2023-05-02T19:25:40.730Z,69.51
2023-05-02T19:28:07.429Z,69.33
2023-05-02T19:30:33.764Z,69.91
2023-05-02T19:33:00.376Z,72.25
2023-05-02T19:35:27.158Z,75.73
2023-05-02T19:37:53.651Z,73.31
2023-05-02T19:40:20.222Z,72.34
2023-05-02T19:42:46.533Z,72.90
2023-05-02T19:45:13.691Z,72.91
2023-05-02T19:47:43.755Z,73.14
2023-05-02T19:50:10.589Z,72.69
2023-05-02T19:52:38.953Z,74.67
2023-05-02T19:55:06.903Z,74.83
2023-05-02T19:57:33.262Z,76.53
2023-05-02T19:59:59.947Z,76.73
2023-05-02T20:02:26.889Z,76.77
2023-05-02T20:04:53.349Z,77.06
2023-05-02T20:07:19.736Z,75.72
2023-05-02T20:09:46.130Z,76.20
2023-05-02T20:12:12.413Z,75.02
2023-05-02T20:14:40.715Z,75.18
2023-05-02T20:17:07.334Z,73.71
2023-05-02T20:19:33.758Z,73.87
2023-05-02T20:22:00.268Z,73.81
2023-05-02T20:24:26.609Z,71.28
2023-05-02T20:26:52.959Z,73.52
2023-05-02T20:29:19.491Z,71.86
2023-05-02T20:31:45.913Z,70.90
2023-05-02T20:34:12.307Z,70.99
2023-05-02T20:36:38.686Z,69.81
2023-05-02T20:39:07.358Z,71.01
2023-05-02T20:41:34.829Z,70.78
2023-05-02T20:44:02.577Z,71.15
2023-05-02T20:46:29.353Z,70.78
2023-05-02T20:48:55.726Z,70.22
2023-05-02T20:51:22.122Z,70.64
2023-05-02T20:53:48.870Z,72.04
2023-05-02T20:56:15.323Z,70.96
2023-05-02T20:58:41.637Z,71.38
2023-05-02T21:01:08.106Z,70.01
2023-05-02T21:03:36.571Z,70.93
2023-05-02T21:06:03.355Z,71.42
2023-05-02T21:08:29.747Z,71.33
2023-05-02T21:10:56.043Z,71.55
2023-05-02T21:13:22.360Z,72.38
2023-05-02T21:15:48.804Z,72.87
2023-05-02T21:18:15.348Z,73.20
2023-05-02T21:20:41.694Z,73.69
2023-05-02T21:23:11.044Z,74.23
2023-05-02T21:25:38.116Z,74.09
2023-05-02T21:28:04.687Z,74.67
2023-05-02T21:30:31.197Z,75.12
2023-05-02T21:32:57.621Z,75.16
2023-05-02T21:35:23.981Z,76.51
2023-05-02T21:37:50.476Z,75.81
2023-05-02T21:40:16.761Z,76.20
2023-05-02T21:42:43.284Z,76.63
2023-05-02T21:45:09.858Z,76.49
2023-05-02T21:47:36.198Z,77.00
2023-05-02T21:50:04.173Z,76.73
2023-05-02T21:52:31.552Z,76.47
2023-05-02T21:54:57.942Z,76.99
2023-05-02T21:57:24.296Z,77.19
2023-05-02T21:59:50.749Z,78.33
2023-05-02T22:02:17.100Z,77.18
2023-05-02T22:04:46.954Z,76.99
2023-05-02T22:07:13.683Z,77.05
2023-05-02T22:09:40.101Z,78.40
2023-05-02T22:12:06.497Z,77.68
2023-05-02T22:14:41.644Z,77.18
2023-05-02T22:17:11.553Z,78.19
2023-05-02T22:19:38.816Z,77.80
2023-05-02T22:22:05.370Z,77.96
2023-05-02T22:24:31.750Z,78.21
2023-05-02T22:26:58.167Z,78.37
2023-05-02T22:29:24.562Z,77.51
2023-05-02T22:31:51.967Z,78.60
2023-05-02T22:34:18.812Z,79.39
2023-05-02T22:36:45.218Z,79.00
2023-05-02T22:39:12.707Z,79.38
2023-05-02T22:41:39.034Z,79.39
2023-05-02T22:44:05.547Z,79.41
2023-05-02T22:46:31.920Z,79.95
2023-05-02T22:48:58.667Z,80.22
2023-05-02T22:51:28.454Z,80.06
2023-05-02T22:53:55.359Z,79.39
2023-05-02T22:56:22.180Z,80.38
2023-05-02T22:58:49.813Z,80.62
2023-05-02T23:01:16.349Z,80.45
2023-05-02T23:03:43.033Z,80.19
2023-05-02T23:06:09.680Z,79.38
2023-05-02T23:08:36.041Z,79.98
2023-05-02T23:11:02.736Z,79.91
2023-05-02T23:13:29.092Z,80.20
2023-05-02T23:15:55.679Z,80.39
2023-05-02T23:18:22.924Z,80.74
2023-05-02T23:20:49.319Z,80.25
2023-05-02T23:23:15.709Z,80.66
2023-05-02T23:25:42.122Z,81.79
2023-05-02T23:28:08.497Z,81.82
2023-05-02T23:30:34.910Z,80.72
2023-05-02T23:33:01.509Z,81.76
2023-05-02T23:35:27.909Z,81.88
2023-05-02T23:37:54.296Z,80.82
2023-05-02T23:40:20.804Z,81.82
2023-05-02T23:42:47.512Z,82.76
2023-05-02T23:45:13.889Z,83.14
2023-05-02T23:47:40.400Z,82.73
2023-05-02T23:50:07.646Z,81.87
2023-05-02T23:52:34.016Z,82.72
2023-05-02T23:55:00.402Z,82.95
2023-05-02T23:57:29.447Z,83.99
2023-05-02T23:59:55.895Z,82.46
